Terminal Aerodrome Forecast
Issued by NWS

Home | Current Version | Previous Version | Text Only | Print | Product List | Glossary On
Versions: 1 2 3 4 5 6 7 8 9 10 11 12 13 14 15 16 17 18 19 20 21 22 23 24 25 26 27 28
000
FTUS41 KRNK 210702 AAA
TAFBCB
TAF AMD
KBCB 210702Z 2107/2206 00000KT P6SM SCT015 OVC050
     FM211000 00000KT 2SM BR OVC008
     FM211300 VRB03KT P6SM BKN025=

USA.gov is the U.S. government's official web portal to all federal, state and local government web resources and services.